Time;durP1;ratioP1;P1;durP2;ratioP2;P2;SDS_P1;SDS_P2;PMS_P1;PMS_P2;Temp;Humidity;BMP_temperature;BMP_pressure;BME280_temperature;BME280_humidity;BME280_pressure;Samples;Min_cycle;Max_cycle;Signal;HPM_P1;HPM_P2
2023/01/25 00:01:53;;;;;;;;;;;;;;;;;;5057534;28;20323;-75
2023/01/25 00:04:19;;;;;;;;;;;;;;;;;;5055868;28;20376;-77
2023/01/25 00:06:45;;;;;;;;;;;;;;;;;;5057276;28;19909;-76
2023/01/25 00:09:11;;;;;;;;;;;;;;;;;;5057068;28;19916;-76
2023/01/25 00:11:37;;;;;;;;;;;;;;;;;;5057418;28;19919;-76
2023/01/25 00:14:03;;;;;;;;;;;;;;;;;;5057003;28;19916;-76
2023/01/25 00:16:29;;;;;;;;;;;;;;;;;;5056780;28;19921;-76
2023/01/25 00:18:55;;;;;;;;;;;;;;;;;;5056923;28;19909;-76
2023/01/25 00:21:21;;;;;;;;;;;;;;;;;;5056873;28;19909;-76
2023/01/25 00:23:46;;;;;;;;;;;;;;;;;;5057265;28;20310;-76
2023/01/25 00:26:12;;;;;;;;;;;;;;;;;;5055501;28;20499;-77
2023/01/25 00:28:38;;;;;;;;;;;;;;;;;;5056762;28;19917;-76
2023/01/25 00:31:04;;;;;;;;;;;;;;;;;;5056805;28;19971;-76
2023/01/25 00:33:30;;;;;;;;;;;;;;;;;;5056695;28;19909;-77
2023/01/25 00:35:56;;;;;;;;;;;;;;;;;;5056855;28;19924;-76
2023/01/25 00:38:22;;;;;;;;;;;;;;;;;;5055252;28;19913;-77
2023/01/25 00:40:48;;;;;;;;;;;;;;;;;;5056588;28;19920;-77
2023/01/25 00:43:14;;;;;;;;;;;;;;;;;;5056463;28;20292;-77
2023/01/25 00:45:40;;;;;;;;;;;;;;;;;;5056417;28;19964;-77
2023/01/25 00:48:06;;;;;;;;;;;;;;;;;;5056615;28;19909;-75
2023/01/25 00:50:31;;;;;;;;;;;;;;;;;;5056279;28;20296;-76
2023/01/25 00:52:57;;;;;;;;;;;;;;;;;;5056528;28;19923;-77
2023/01/25 00:55:23;;;;;;;;;;;;;;;;;;5056351;28;19909;-76
2023/01/25 00:57:49;;;;;;;;;;;;;;;;;;5056234;28;19915;-76
2023/01/25 01:00:15;;;;;;;;;;;;;;;;;;5056097;28;20323;-76
2023/01/25 01:02:41;;;;;;;;;;;;;;;;;;5054828;28;20361;-76
2023/01/25 01:05:07;;;;;;;;;;;;;;;;;;5056048;28;19913;-76
2023/01/25 01:07:33;;;;;;;;;;;;;;;;;;5054519;28;20392;-77
2023/01/25 01:09:59;;;;;;;;;;;;;;;;;;5055891;28;20361;-76
2023/01/25 01:12:25;;;;;;;;;;;;;;;;;;5056260;28;19931;-76
2023/01/25 01:14:51;;;;;;;;;;;;;;;;;;5055878;28;20004;-77
2023/01/25 01:17:17;;;;;;;;;;;;;;;;;;5054354;28;20404;-77
2023/01/25 01:19:43;;;;;;;;;;;;;;;;;;5055730;28;19909;-77
2023/01/25 01:22:08;;;;;;;;;;;;;;;;;;5055751;28;19920;-77
2023/01/25 01:24:34;;;;;;;;;;;;;;;;;;5055649;28;19908;-76
2023/01/25 01:27:00;;;;;;;;;;;;;;;;;;5055785;28;20012;-76
2023/01/25 01:29:26;;;;;;;;;;;;;;;;;;5055592;28;19956;-77
2023/01/25 01:31:52;;;;;;;;;;;;;;;;;;5055934;28;19913;-77
2023/01/25 01:34:18;;;;;;;;;;;;;;;;;;5055828;28;19912;-76
2023/01/25 01:36:44;;;;;;;;;;;;;;;;;;5055571;28;19909;-76
2023/01/25 01:39:10;;;;;;;;;;;;;;;;;;5055216;28;19991;-76
2023/01/25 01:41:36;;;;;;;;;;;;;;;;;;5055690;28;19952;-77
2023/01/25 01:44:02;;;;;;;;;;;;;;;;;;5055334;28;20284;-77
2023/01/25 01:46:28;;;;;;;;;;;;;;;;;;5055736;28;20379;-76
2023/01/25 01:48:54;;;;;;;;;;;;;;;;;;5055344;28;20000;-76
2023/01/25 01:51:20;;;;;;;;;;;;;;;;;;5055124;28;19961;-77
2023/01/25 01:53:46;;;;;;;;;;;;;;;;;;5055622;28;19913;-76
2023/01/25 01:56:12;;;;;;;;;;;;;;;;;;5055093;28;19955;-76
2023/01/25 01:58:38;;;;;;;;;;;;;;;;;;5055063;28;19916;-76
2023/01/25 02:01:03;;;;;;;;;;;;;;;;;;5053769;28;19909;-76
2023/01/25 02:03:29;;;;;;;;;;;;;;;;;;5054982;28;20284;-76
2023/01/25 02:05:55;;;;;;;;;;;;;;;;;;5055426;28;20371;-77
2023/01/25 02:08:21;;;;;;;;;;;;;;;;;;5054869;28;19909;-77
2023/01/25 02:10:47;;;;;;;;;;;;;;;;;;5054741;28;19935;-76
2023/01/25 02:13:13;;;;;;;;;;;;;;;;;;5053459;28;19908;-77
2023/01/25 02:15:39;;;;;;;;;;;;;;;;;;5054775;28;19959;-77
2023/01/25 02:18:05;;;;;;;;;;;;;;;;;;5052448;28;19912;-76
2023/01/25 02:20:31;;;;;;;;;;;;;;;;;;5054817;28;19971;-77
2023/01/25 02:22:57;;;;;;;;;;;;;;;;;;5054690;28;19916;-77
2023/01/25 02:25:23;;;;;;;;;;;;;;;;;;5054488;28;19909;-77
2023/01/25 02:27:49;;;;;;;;;;;;;;;;;;5054720;28;20323;-76
2023/01/25 02:30:14;;;;;;;;;;;;;;;;;;5054374;28;20281;-77
2023/01/25 02:32:40;;;;;;;;;;;;;;;;;;5054658;28;19916;-77
2023/01/25 02:35:06;;;;;;;;;;;;;;;;;;5054481;28;19908;-76
2023/01/25 02:37:32;;;;;;;;;;;;;;;;;;5053082;28;19909;-76
2023/01/25 02:39:58;;;;;;;;;;;;;;;;;;5054424;28;20000;-77
2023/01/25 02:42:24;;;;;;;;;;;;;;;;;;5054301;28;19952;-76
2023/01/25 02:44:50;;;;;;;;;;;;;;;;;;5054720;28;20273;-77
2023/01/25 02:47:16;;;;;;;;;;;;;;;;;;5054239;28;20410;-76
2023/01/25 02:49:42;;;;;;;;;;;;;;;;;;5054056;28;19931;-76
2023/01/25 02:52:08;;;;;;;;;;;;;;;;;;5054381;28;20356;-77
2023/01/25 02:54:34;;;;;;;;;;;;;;;;;;5054008;28;20388;-77
2023/01/25 02:57:00;;;;;;;;;;;;;;;;;;5054191;28;19908;-76
2023/01/25 02:59:27;;;;;;;;;;;;;;;;;;5053937;28;19916;-77
2023/01/25 03:01:53;;;;;;;;;;;;;;;;;;5052589;28;19996;-77
2023/01/25 03:04:19;;;;;;;;;;;;;;;;;;5054005;28;19963;-77
2023/01/25 03:06:45;;;;;;;;;;;;;;;;;;5052613;28;19909;-76
2023/01/25 03:09:10;;;;;;;;;;;;;;;;;;5053802;28;19931;-76
2023/01/25 03:11:36;;;;;;;;;;;;;;;;;;5054112;28;19913;-76
2023/01/25 03:14:02;;;;;;;;;;;;;;;;;;5053998;28;20353;-77
2023/01/25 03:16:28;;;;;;;;;;;;;;;;;;5053821;28;20008;-77
2023/01/25 03:18:54;;;;;;;;;;;;;;;;;;5053741;28;20327;-76
2023/01/25 03:21:20;;;;;;;;;;;;;;;;;;5052364;28;20396;-77
2023/01/25 03:23:46;;;;;;;;;;;;;;;;;;5053622;28;19908;-77
2023/01/25 03:26:12;;;;;;;;;;;;;;;;;;5053737;28;19916;-77
2023/01/25 03:28:38;;;;;;;;;;;;;;;;;;5052173;28;20012;-77
2023/01/25 03:31:04;;;;;;;;;;;;;;;;;;5053539;28;19919;-77
2023/01/25 03:33:30;;;;;;;;;;;;;;;;;;5053542;28;20333;-77
2023/01/25 03:35:56;;;;;;;;;;;;;;;;;;5053988;28;19916;-77
2023/01/25 03:38:22;;;;;;;;;;;;;;;;;;5053411;28;19909;-77
2023/01/25 03:40:48;;;;;;;;;;;;;;;;;;5053453;28;19909;-76
2023/01/25 03:43:13;;;;;;;;;;;;;;;;;;5053401;28;20003;-76
2023/01/25 03:45:39;;;;;;;;;;;;;;;;;;5053500;28;20002;-76
2023/01/25 03:48:05;;;;;;;;;;;;;;;;;;5053354;28;19913;-77
2023/01/25 03:50:31;;;;;;;;;;;;;;;;;;5053443;28;19963;-75
2023/01/25 03:53:19;;;;;;;;;;;;;;;;;;;;;
2023/01/25 03:55:45;;;;;;;;;;;;;;;;;;5053197;28;19942;-77
2023/01/25 03:58:11;;;;;;;;;;;;;;;;;;5053275;28;20007;-77
2023/01/25 04:00:37;;;;;;;;;;;;;;;;;;5053536;28;20368;-77
2023/01/25 04:03:02;;;;;;;;;;;;;;;;;;5053243;28;19909;-77
2023/01/25 04:05:28;;;;;;;;;;;;;;;;;;5053232;28;19913;-77
2023/01/25 04:07:54;;;;;;;;;;;;;;;;;;5051863;28;20365;-76
2023/01/25 04:10:20;;;;;;;;;;;;;;;;;;5053158;28;20016;-76
2023/01/25 04:12:46;;;;;;;;;;;;;;;;;;5053197;28;19948;-77
2023/01/25 04:15:12;;;;;;;;;;;;;;;;;;5053182;28;19913;-77
2023/01/25 04:17:38;;;;;;;;;;;;;;;;;;5052690;28;19927;-76
2023/01/25 04:20:04;;;;;;;;;;;;;;;;;;5053113;28;19954;-76
2023/01/25 04:22:30;;;;;;;;;;;;;;;;;;5053326;28;20006;-76
2023/01/25 04:24:56;;;;;;;;;;;;;;;;;;5053058;28;19908;-77
2023/01/25 04:27:22;;;;;;;;;;;;;;;;;;5053065;28;19912;-76
2023/01/25 04:29:48;;;;;;;;;;;;;;;;;;5053030;28;19909;-76
2023/01/25 04:32:13;;;;;;;;;;;;;;;;;;5052886;28;19935;-77
2023/01/25 04:34:39;;;;;;;;;;;;;;;;;;5053259;28;20364;-76
2023/01/25 04:37:05;;;;;;;;;;;;;;;;;;5052976;28;19963;-77
2023/01/25 04:39:31;;;;;;;;;;;;;;;;;;5051559;28;19909;-76
2023/01/25 04:41:57;;;;;;;;;;;;;;;;;;5055346;28;19908;-75
2023/01/25 04:44:23;;;;;;;;;;;;;;;;;;5056660;28;19916;-76
2023/01/25 04:46:49;;;;;;;;;;;;;;;;;;5056418;28;19913;-77
2023/01/25 04:49:15;;;;;;;;;;;;;;;;;;5056410;28;19958;-76
2023/01/25 04:51:41;;;;;;;;;;;;;;;;;;5056297;28;20007;-76
2023/01/25 04:54:07;;;;;;;;;;;;;;;;;;5056307;28;19913;-77
2023/01/25 04:56:34;;;;;;;;;;;;;;;;;;5056484;28;20309;-76
2023/01/25 04:59:00;;;;;;;;;;;;;;;;;;5056201;28;19975;-77
2023/01/25 05:01:26;;;;;;;;;;;;;;;;;;5056139;28;20338;-77
2023/01/25 05:03:51;;;;;;;;;;;;;;;;;;5056176;28;19916;-76
2023/01/25 05:06:17;;;;;;;;;;;;;;;;;;5056085;28;19955;-76
2023/01/25 05:08:43;;;;;;;;;;;;;;;;;;5056033;28;19908;-77
2023/01/25 05:11:09;;;;;;;;;;;;;;;;;;5055897;28;19967;-77
2023/01/25 05:13:35;;;;;;;;;;;;;;;;;;5055922;28;19909;-76
2023/01/25 05:16:01;;;;;;;;;;;;;;;;;;5056009;28;19921;-77
2023/01/25 05:18:27;;;;;;;;;;;;;;;;;;5055979;28;19909;-77
2023/01/25 05:20:53;;;;;;;;;;;;;;;;;;5055688;28;19999;-77
2023/01/25 05:23:19;;;;;;;;;;;;;;;;;;5055766;28;20364;-76
2023/01/25 05:28:30;;;;;;;;;;;;;;;;;;5055474;28;19958;-75
2023/01/25 05:30:55;;;;;;;;;;;;;;;;;;5055576;28;19917;-77
2023/01/25 05:33:21;;;;;;;;;;;;;;;;;;5055630;28;20384;-77
2023/01/25 05:35:47;;;;;;;;;;;;;;;;;;5054307;28;20288;-76
2023/01/25 05:38:13;;;;;;;;;;;;;;;;;;5055757;28;20019;-76
2023/01/25 05:40:39;;;;;;;;;;;;;;;;;;5055577;28;19975;-76
2023/01/25 05:43:05;;;;;;;;;;;;;;;;;;5055399;28;19916;-77
2023/01/25 05:45:31;;;;;;;;;;;;;;;;;;5055368;28;19909;-76
2023/01/25 05:47:57;;;;;;;;;;;;;;;;;;5055749;28;20391;-77
2023/01/25 05:50:23;;;;;;;;;;;;;;;;;;5055182;28;20357;-77
2023/01/25 05:52:49;;;;;;;;;;;;;;;;;;5054184;28;19917;-76
2023/01/25 05:55:15;;;;;;;;;;;;;;;;;;5055187;28;19915;-77
2023/01/25 05:57:41;;;;;;;;;;;;;;;;;;5055170;28;19943;-77
2023/01/25 06:00:07;;;;;;;;;;;;;;;;;;5055225;28;19909;-76
2023/01/25 06:02:32;;;;;;;;;;;;;;;;;;5055051;28;19932;-76
2023/01/25 06:04:58;;;;;;;;;;;;;;;;;;5055140;28;20373;-77
2023/01/25 06:07:24;;;;;;;;;;;;;;;;;;5054987;28;19916;-76
2023/01/25 06:09:50;;;;;;;;;;;;;;;;;;5054904;28;19909;-76
2023/01/25 06:12:16;;;;;;;;;;;;;;;;;;5054745;28;20002;-77
2023/01/25 06:14:42;;;;;;;;;;;;;;;;;;5053517;28;19958;-76
2023/01/25 06:17:08;;;;;;;;;;;;;;;;;;5054527;28;19920;-76
2023/01/25 06:19:34;;;;;;;;;;;;;;;;;;5054947;28;20327;-77
2023/01/25 06:22:00;;;;;;;;;;;;;;;;;;5053402;28;19909;-76
2023/01/25 06:24:26;;;;;;;;;;;;;;;;;;5054887;28;19935;-76
2023/01/25 06:26:52;;;;;;;;;;;;;;;;;;5054704;28;19909;-76
2023/01/25 06:29:18;;;;;;;;;;;;;;;;;;5053141;28;20075;-76
2023/01/25 06:31:43;;;;;;;;;;;;;;;;;;5054499;28;19948;-77
2023/01/25 06:34:09;;;;;;;;;;;;;;;;;;5054416;28;20280;-77
2023/01/25 06:36:35;;;;;;;;;;;;;;;;;;5054365;28;20388;-75
2023/01/25 06:39:01;;;;;;;;;;;;;;;;;;5054296;28;19909;-76
2023/01/25 06:41:28;;;;;;;;;;;;;;;;;;5054751;28;19909;-77
2023/01/25 06:43:54;;;;;;;;;;;;;;;;;;5054208;28;19995;-76
2023/01/25 06:46:20;;;;;;;;;;;;;;;;;;5054373;28;19909;-77
2023/01/25 06:48:48;;;;;;;;;;;;;;;;;;5053602;28;20209;-77
2023/01/25 06:51:14;;;;;;;;;;;;;;;;;;5054018;28;19920;-77
2023/01/25 06:53:40;;;;;;;;;;;;;;;;;;5054037;28;19909;-77
2023/01/25 06:56:06;;;;;;;;;;;;;;;;;;5054275;28;19915;-76
2023/01/25 06:58:32;;;;;;;;;;;;;;;;;;5054202;28;20361;-76
2023/01/25 07:00:58;;;;;;;;;;;;;;;;;;5053897;28;19909;-76
2023/01/25 07:03:24;;;;;;;;;;;;;;;;;;5054063;28;20400;-75
2023/01/25 07:05:50;;;;;;;;;;;;;;;;;;5053890;28;19909;-76
2023/01/25 07:08:16;;;;;;;;;;;;;;;;;;5053886;28;19909;-76
2023/01/25 07:10:42;;;;;;;;;;;;;;;;;;5053757;28;20564;-77
2023/01/25 07:13:08;;;;;;;;;;;;;;;;;;5053802;28;19916;-77
2023/01/25 07:15:34;;;;;;;;;;;;;;;;;;5053570;28;19908;-76
2023/01/25 07:18:00;;;;;;;;;;;;;;;;;;5054010;28;20344;-76
2023/01/25 07:20:26;;;;;;;;;;;;;;;;;;5053689;28;19909;-76
2023/01/25 07:22:51;;;;;;;;;;;;;;;;;;5053688;28;19991;-75
2023/01/25 07:25:17;;;;;;;;;;;;;;;;;;5053658;28;19944;-75
2023/01/25 07:27:43;;;;;;;;;;;;;;;;;;5053637;28;19909;-76
2023/01/25 07:30:09;;;;;;;;;;;;;;;;;;5053558;28;20266;-76
2023/01/25 07:32:35;;;;;;;;;;;;;;;;;;5053840;28;20361;-75
2023/01/25 07:35:01;;;;;;;;;;;;;;;;;;5053689;28;19916;-75
2023/01/25 07:37:27;;;;;;;;;;;;;;;;;;5054076;28;19909;-76
2023/01/25 07:39:56;;;;;;;;;;;;;;;;;;5053427;28;20051;-76
2023/01/25 07:42:24;;;;;;;;;;;;;;;;;;5053591;28;19995;-75
2023/01/25 07:44:50;;;;;;;;;;;;;;;;;;5053507;28;19909;-76
2023/01/25 07:47:16;;;;;;;;;;;;;;;;;;5052188;28;20288;-76
2023/01/25 07:49:42;;;;;;;;;;;;;;;;;;5053381;28;19909;-75
2023/01/25 07:52:08;;;;;;;;;;;;;;;;;;5053316;28;19913;-76
2023/01/25 07:54:34;;;;;;;;;;;;;;;;;;5053734;28;19908;-75
2023/01/25 07:56:59;;;;;;;;;;;;;;;;;;5053331;28;20000;-75
2023/01/25 07:59:25;;;;;;;;;;;;;;;;;;5053311;28;19952;-75
2023/01/25 08:01:52;;;;;;;;;;;;;;;;;;5053550;28;19909;-76
2023/01/25 08:04:18;;;;;;;;;;;;;;;;;;5053300;28;19912;-75
2023/01/25 08:06:45;;;;;;;;;;;;;;;;;;5053613;28;20385;-76
2023/01/25 08:09:11;;;;;;;;;;;;;;;;;;5051939;28;19916;-76
2023/01/25 08:11:36;;;;;;;;;;;;;;;;;;5053133;28;20289;-76
2023/01/25 08:14:02;;;;;;;;;;;;;;;;;;5053206;28;19909;-75
2023/01/25 08:16:29;;;;;;;;;;;;;;;;;;5054819;28;19921;-75
2023/01/25 08:18:54;;;;;;;;;;;;;;;;;;5056975;28;19909;-75
2023/01/25 08:21:23;;;;;;;;;;;;;;;;;;5056932;28;20383;-75
2023/01/25 08:23:48;;;;;;;;;;;;;;;;;;5056894;28;19912;-75
2023/01/25 08:26:15;;;;;;;;;;;;;;;;;;5055619;28;20285;-74
2023/01/25 08:28:41;;;;;;;;;;;;;;;;;;5057118;28;19908;-75
2023/01/25 08:31:07;;;;;;;;;;;;;;;;;;5056726;28;19919;-76
2023/01/25 08:33:33;;;;;;;;;;;;;;;;;;5056745;28;19991;-75
2023/01/25 08:35:59;;;;;;;;;;;;;;;;;;5056694;28;19917;-75
2023/01/25 08:38:25;;;;;;;;;;;;;;;;;;5056872;28;19996;-75
2023/01/25 08:40:51;;;;;;;;;;;;;;;;;;5056576;28;19915;-75
2023/01/25 08:43:17;;;;;;;;;;;;;;;;;;5056596;28;19908;-75
2023/01/25 08:45:43;;;;;;;;;;;;;;;;;;5056507;28;20377;-76
2023/01/25 08:48:11;;;;;;;;;;;;;;;;;;5056449;28;19927;-76
2023/01/25 08:50:37;;;;;;;;;;;;;;;;;;5056456;28;19912;-75
2023/01/25 08:53:03;;;;;;;;;;;;;;;;;;5055094;28;19909;-75
2023/01/25 08:55:29;;;;;;;;;;;;;;;;;;5056358;28;20376;-75
2023/01/25 08:57:55;;;;;;;;;;;;;;;;;;5056282;28;20407;-76
2023/01/25 09:00:21;;;;;;;;;;;;;;;;;;5056557;28;19913;-75
2023/01/25 09:02:47;;;;;;;;;;;;;;;;;;5056167;28;19916;-75
2023/01/25 09:05:13;;;;;;;;;;;;;;;;;;5054847;28;19909;-76
2023/01/25 09:07:39;;;;;;;;;;;;;;;;;;5056003;28;19917;-75
2023/01/25 09:10:07;;;;;;;;;;;;;;;;;;5056096;28;20322;-75
2023/01/25 09:12:33;;;;;;;;;;;;;;;;;;5056282;28;19913;-76
2023/01/25 09:14:59;;;;;;;;;;;;;;;;;;5055958;28;19935;-75
2023/01/25 09:17:25;;;;;;;;;;;;;;;;;;5055602;28;20296;-76
2023/01/25 09:19:51;;;;;;;;;;;;;;;;;;5054544;28;20011;-76
2023/01/25 09:22:17;;;;;;;;;;;;;;;;;;5055817;28;19909;-76
2023/01/25 09:24:43;;;;;;;;;;;;;;;;;;5055795;28;19908;-76
2023/01/25 09:27:09;;;;;;;;;;;;;;;;;;5055547;28;19965;-76
2023/01/25 09:29:35;;;;;;;;;;;;;;;;;;5055672;28;19999;-76
2023/01/25 09:32:01;;;;;;;;;;;;;;;;;;5055566;28;19959;-76
2023/01/25 09:34:27;;;;;;;;;;;;;;;;;;5055790;28;19916;-76
2023/01/25 09:36:53;;;;;;;;;;;;;;;;;;5055825;28;19909;-76
2023/01/25 09:39:19;;;;;;;;;;;;;;;;;;5054250;28;19920;-76
2023/01/25 09:41:45;;;;;;;;;;;;;;;;;;5055476;28;19916;-75
2023/01/25 09:44:11;;;;;;;;;;;;;;;;;;5055635;28;19909;-75
2023/01/25 09:46:37;;;;;;;;;;;;;;;;;;5055353;28;19909;-75
2023/01/25 09:49:04;;;;;;;;;;;;;;;;;;5055342;28;19959;-76
2023/01/25 09:51:30;;;;;;;;;;;;;;;;;;5053830;28;19917;-75
2023/01/25 09:53:57;;;;;;;;;;;;;;;;;;5055191;28;20320;-75
2023/01/25 09:56:23;;;;;;;;;;;;;;;;;;5053846;28;19916;-75
2023/01/25 09:58:49;;;;;;;;;;;;;;;;;;5053864;28;19913;-75
2023/01/25 10:01:15;;;;;;;;;;;;;;;;;;5055187;28;19909;-76
2023/01/25 10:03:41;;;;;;;;;;;;;;;;;;5055034;28;19909;-75
2023/01/25 10:06:07;;;;;;;;;;;;;;;;;;5054952;28;19909;-76
2023/01/25 10:08:33;;;;;;;;;;;;;;;;;;5055175;28;20289;-76
2023/01/25 10:10:59;;;;;;;;;;;;;;;;;;5054800;28;20353;-76
2023/01/25 10:13:30;;;;;;;;;;;;;;;;;;5054868;28;19909;-74
2023/01/25 10:15:56;;;;;;;;;;;;;;;;;;5054711;28;19924;-75
2023/01/25 10:18:22;;;;;;;;;;;;;;;;;;5053262;28;19913;-76
2023/01/25 10:20:48;;;;;;;;;;;;;;;;;;5054702;28;19915;-75
2023/01/25 10:23:14;;;;;;;;;;;;;;;;;;5054860;28;19909;-76
2023/01/25 10:25:40;;;;;;;;;;;;;;;;;;5054756;28;20012;-76
2023/01/25 10:28:05;;;;;;;;;;;;;;;;;;5054576;28;19956;-75
2023/01/25 10:30:35;;;;;;;;;;;;;;;;;;5054469;28;20288;-75
2023/01/25 10:33:01;;;;;;;;;;;;;;;;;;5054457;28;19963;-75
2023/01/25 10:35:27;;;;;;;;;;;;;;;;;;5053160;28;19912;-76
2023/01/25 10:37:53;;;;;;;;;;;;;;;;;;5054230;28;19916;-75
2023/01/25 10:40:19;;;;;;;;;;;;;;;;;;5053932;28;19913;-75
2023/01/25 10:42:45;;;;;;;;;;;;;;;;;;5054257;28;19909;-76
2023/01/25 10:45:11;;;;;;;;;;;;;;;;;;5054248;28;20258;-76
2023/01/25 10:47:38;;;;;;;;;;;;;;;;;;5054427;28;20426;-75
2023/01/25 10:50:04;;;;;;;;;;;;;;;;;;5054171;28;19935;-75
2023/01/25 10:52:30;;;;;;;;;;;;;;;;;;5054300;28;19916;-76
2023/01/25 10:54:56;;;;;;;;;;;;;;;;;;5054338;28;19908;-77
2023/01/25 10:57:23;;;;;;;;;;;;;;;;;;5054421;28;19913;-76
2023/01/25 10:59:48;;;;;;;;;;;;;;;;;;5054109;28;19913;-76
2023/01/25 11:02:14;;;;;;;;;;;;;;;;;;5053909;28;19963;-76
2023/01/25 11:04:44;;;;;;;;;;;;;;;;;;5053945;28;19909;-76
2023/01/25 11:07:10;;;;;;;;;;;;;;;;;;5053951;28;19909;-77
2023/01/25 11:09:36;;;;;;;;;;;;;;;;;;5052573;28;19909;-76
2023/01/25 11:12:02;;;;;;;;;;;;;;;;;;5053964;28;19913;-76
2023/01/25 11:14:28;;;;;;;;;;;;;;;;;;5053809;28;19958;-76
2023/01/25 11:16:54;;;;;;;;;;;;;;;;;;5052290;28;19921;-76
2023/01/25 11:19:19;;;;;;;;;;;;;;;;;;5052466;28;19912;-76
2023/01/25 11:21:45;;;;;;;;;;;;;;;;;;5053671;28;19908;-76
2023/01/25 11:24:11;;;;;;;;;;;;;;;;;;5053852;28;19909;-76
2023/01/25 11:26:37;;;;;;;;;;;;;;;;;;5053691;28;20019;-76
2023/01/25 11:29:03;;;;;;;;;;;;;;;;;;5053645;28;20349;-76
2023/01/25 11:31:29;;;;;;;;;;;;;;;;;;5053961;28;19924;-76
2023/01/25 11:33:55;;;;;;;;;;;;;;;;;;5053894;28;19908;-76
2023/01/25 11:36:21;;;;;;;;;;;;;;;;;;5053871;28;19955;-76
2023/01/25 11:38:47;;;;;;;;;;;;;;;;;;5052169;28;20004;-75
2023/01/25 11:41:13;;;;;;;;;;;;;;;;;;5053592;28;19908;-76
2023/01/25 11:43:39;;;;;;;;;;;;;;;;;;5053535;28;19955;-76
2023/01/25 11:46:05;;;;;;;;;;;;;;;;;;5053660;28;19909;-76
2023/01/25 11:48:31;;;;;;;;;;;;;;;;;;5052169;28;20400;-75
2023/01/25 11:50:57;;;;;;;;;;;;;;;;;;5056172;28;19913;-76
2023/01/25 11:53:23;;;;;;;;;;;;;;;;;;5057738;28;19909;-76
2023/01/25 11:55:49;;;;;;;;;;;;;;;;;;5057458;28;19920;-75
2023/01/25 11:58:15;;;;;;;;;;;;;;;;;;5057438;28;19909;-76
2023/01/25 12:00:41;;;;;;;;;;;;;;;;;;5057267;28;20368;-75
2023/01/25 12:03:07;;;;;;;;;;;;;;;;;;5056030;28;20376;-75
2023/01/25 12:05:33;;;;;;;;;;;;;;;;;;5057611;28;19916;-76
2023/01/25 12:07:58;;;;;;;;;;;;;;;;;;5057496;28;19913;-75
2023/01/25 12:10:24;;;;;;;;;;;;;;;;;;5057119;28;19916;-76
2023/01/25 12:12:50;;;;;;;;;;;;;;;;;;5057583;28;19916;-76
2023/01/25 12:15:17;;;;;;;;;;;;;;;;;;5057141;28;19956;-76
2023/01/25 12:17:42;;;;;;;;;;;;;;;;;;5056800;28;20339;-76
2023/01/25 12:20:08;;;;;;;;;;;;;;;;;;5057212;28;19999;-76
2023/01/25 12:22:34;;;;;;;;;;;;;;;;;;5057082;28;19959;-75
2023/01/25 12:25:00;;;;;;;;;;;;;;;;;;5056920;28;19916;-77
2023/01/25 12:27:26;;;;;;;;;;;;;;;;;;5056886;28;19909;-77
2023/01/25 12:29:54;;;;;;;;;;;;;;;;;;5056831;28;20418;-76
2023/01/25 12:32:20;;;;;;;;;;;;;;;;;;5056871;28;19963;-76
2023/01/25 12:34:46;;;;;;;;;;;;;;;;;;5056782;28;20282;-77
2023/01/25 12:37:12;;;;;;;;;;;;;;;;;;5055448;28;19908;-76
2023/01/25 12:39:38;;;;;;;;;;;;;;;;;;5055248;28;19919;-76
2023/01/25 12:42:04;;;;;;;;;;;;;;;;;;5056383;28;19909;-76
2023/01/25 12:44:30;;;;;;;;;;;;;;;;;;5056084;28;19909;-77
2023/01/25 12:46:56;;;;;;;;;;;;;;;;;;5056485;28;20387;-76
2023/01/25 12:49:22;;;;;;;;;;;;;;;;;;5056080;28;19908;-76
2023/01/25 12:51:48;;;;;;;;;;;;;;;;;;5054542;28;19955;-76
2023/01/25 12:54:14;;;;;;;;;;;;;;;;;;5056320;28;20333;-76
2023/01/25 12:56:42;;;;;;;;;;;;;;;;;;5055780;28;19940;-76
2023/01/25 12:59:08;;;;;;;;;;;;;;;;;;5056059;28;20383;-76
2023/01/25 13:01:34;;;;;;;;;;;;;;;;;;5055357;28;19996;-76
2023/01/25 13:04:00;;;;;;;;;;;;;;;;;;5055614;28;19909;-76
2023/01/25 13:06:26;;;;;;;;;;;;;;;;;;5054560;28;20288;-76
2023/01/25 13:08:52;;;;;;;;;;;;;;;;;;5055825;28;19909;-76
2023/01/25 13:11:19;;;;;;;;;;;;;;;;;;5056000;28;19912;-76
2023/01/25 13:13:45;;;;;;;;;;;;;;;;;;5056081;28;19909;-76
2023/01/25 13:16:11;;;;;;;;;;;;;;;;;;5056137;28;19973;-76
2023/01/25 13:18:36;;;;;;;;;;;;;;;;;;5054686;28;19909;-76
2023/01/25 13:21:03;;;;;;;;;;;;;;;;;;5056022;28;20047;-76
2023/01/25 13:23:30;;;;;;;;;;;;;;;;;;5056001;28;19913;-76
2023/01/25 13:25:57;;;;;;;;;;;;;;;;;;5055846;28;19908;-76
2023/01/25 13:28:23;;;;;;;;;;;;;;;;;;5055701;28;19915;-76
2023/01/25 13:30:49;;;;;;;;;;;;;;;;;;5056046;28;20019;-76
2023/01/25 13:33:15;;;;;;;;;;;;;;;;;;5055654;28;19945;-75
2023/01/25 13:35:41;;;;;;;;;;;;;;;;;;5055726;28;19909;-77
2023/01/25 13:38:07;;;;;;;;;;;;;;;;;;5055508;28;19909;-77
2023/01/25 13:40:32;;;;;;;;;;;;;;;;;;5055196;28;19920;-76
2023/01/25 13:42:58;;;;;;;;;;;;;;;;;;5055933;28;19913;-77
2023/01/25 13:45:24;;;;;;;;;;;;;;;;;;5055791;28;19909;-77
2023/01/25 13:47:50;;;;;;;;;;;;;;;;;;5054127;28;19908;-76
2023/01/25 13:50:17;;;;;;;;;;;;;;;;;;5055433;28;19912;-76
2023/01/25 13:52:43;;;;;;;;;;;;;;;;;;5053995;28;19939;-76
2023/01/25 13:55:09;;;;;;;;;;;;;;;;;;5055266;28;19913;-76
2023/01/25 13:57:35;;;;;;;;;;;;;;;;;;5055206;28;19998;-76
2023/01/25 14:00:01;;;;;;;;;;;;;;;;;;5055298;28;19909;-75
2023/01/25 14:02:27;;;;;;;;;;;;;;;;;;5055230;28;20373;-76
2023/01/25 14:04:53;;;;;;;;;;;;;;;;;;5055057;28;19940;-77
2023/01/25 14:07:19;;;;;;;;;;;;;;;;;;5053553;28;19916;-76
2023/01/25 14:09:45;;;;;;;;;;;;;;;;;;5055067;28;20038;-76
2023/01/25 14:12:11;;;;;;;;;;;;;;;;;;5054896;28;20377;-76
2023/01/25 14:14:37;;;;;;;;;;;;;;;;;;5054240;28;19913;-76
2023/01/25 14:17:03;;;;;;;;;;;;;;;;;;5054823;28;19970;-76
2023/01/25 14:19:29;;;;;;;;;;;;;;;;;;5054901;28;19909;-76
2023/01/25 14:21:55;;;;;;;;;;;;;;;;;;5054682;28;20012;-77
2023/01/25 14:24:20;;;;;;;;;;;;;;;;;;5055073;28;19909;-77
2023/01/25 14:26:46;;;;;;;;;;;;;;;;;;5054753;28;19909;-76
2023/01/25 14:29:12;;;;;;;;;;;;;;;;;;5054575;28;19908;-76
2023/01/25 14:31:38;;;;;;;;;;;;;;;;;;5054482;28;19919;-76
2023/01/25 14:34:05;;;;;;;;;;;;;;;;;;5054525;28;20353;-77
2023/01/25 14:36:32;;;;;;;;;;;;;;;;;;5054821;28;19986;-75
2023/01/25 14:38:57;;;;;;;;;;;;;;;;;;5054648;28;20391;-77
2023/01/25 14:41:23;;;;;;;;;;;;;;;;;;5054398;28;19908;-75
2023/01/25 14:43:49;;;;;;;;;;;;;;;;;;5054410;28;19913;-76
2023/01/25 14:46:15;;;;;;;;;;;;;;;;;;5054307;28;19993;-77
2023/01/25 14:48:41;;;;;;;;;;;;;;;;;;5054403;28;19909;-76
2023/01/25 14:51:07;;;;;;;;;;;;;;;;;;5052842;28;19913;-76
2023/01/25 14:53:34;;;;;;;;;;;;;;;;;;5054173;28;20372;-75
2023/01/25 14:56:01;;;;;;;;;;;;;;;;;;5052804;28;20296;-76
2023/01/25 14:58:30;;;;;;;;;;;;;;;;;;5054484;28;19996;-76
2023/01/25 15:00:56;;;;;;;;;;;;;;;;;;5054037;28;19909;-76
2023/01/25 15:03:25;;;;;;;;;;;;;;;;;;5014565;28;20386;-77
2023/01/25 15:05:51;;;;;;;;;;;;;;;;;;5033696;28;20015;-75
2023/01/25 15:08:17;;;;;;;;;;;;;;;;;;5038685;28;20376;-76
2023/01/25 15:10:43;;;;;;;;;;;;;;;;;;5033493;28;19966;-76
2023/01/25 15:13:09;;;;;;;;;;;;;;;;;;5033203;28;19916;-77
2023/01/25 15:15:35;;;;;;;;;;;;;;;;;;5033358;28;19909;-76
2023/01/25 15:18:00;;;;;;;;;;;;;;;;;;5033431;28;20440;-76
2023/01/25 15:20:26;;;;;;;;;;;;;;;;;;5033516;28;19946;-76
2023/01/25 15:22:52;;;;;;;;;;;;;;;;;;5041396;28;20422;-77
2023/01/25 15:25:18;;;;;;;;;;;;;;;;;;5053127;28;19909;-77
2023/01/25 15:27:44;;;;;;;;;;;;;;;;;;5053306;28;19909;-77
2023/01/25 15:30:10;;;;;;;;;;;;;;;;;;5053103;28;19959;-76
2023/01/25 15:32:36;;;;;;;;;;;;;;;;;;5052777;28;20339;-75
2023/01/25 15:35:03;;;;;;;;;;;;;;;;;;5053358;28;20373;-76
2023/01/25 15:37:29;;;;;;;;;;;;;;;;;;5053170;28;20003;-77
2023/01/25 15:39:55;;;;;;;;;;;;;;;;;;5053059;28;19940;-77
2023/01/25 15:42:21;;;;;;;;;;;;;;;;;;5052722;28;19916;-76
2023/01/25 15:44:47;;;;;;;;;;;;;;;;;;5053159;28;19909;-76
2023/01/25 15:47:13;;;;;;;;;;;;;;;;;;5051543;28;20415;-76
2023/01/25 15:49:38;;;;;;;;;;;;;;;;;;5053070;28;20070;-76
2023/01/25 15:52:05;;;;;;;;;;;;;;;;;;5039703;28;19920;-77
2023/01/25 15:54:30;;;;;;;;;;;;;;;;;;5032910;28;19909;-76
2023/01/25 15:56:56;;;;;;;;;;;;;;;;;;5031827;28;20358;-77
2023/01/25 15:59:22;;;;;;;;;;;;;;;;;;5033163;28;19916;-76
2023/01/25 16:01:48;;;;;;;;;;;;;;;;;;5031728;28;19909;-76
2023/01/25 16:04:14;;;;;;;;;;;;;;;;;;5032574;28;20340;-77
2023/01/25 16:06:40;;;;;;;;;;;;;;;;;;5024399;28;19924;-77
2023/01/25 16:09:06;;;;;;;;;;;;;;;;;;5033088;28;19916;-76
2023/01/25 16:11:32;;;;;;;;;;;;;;;;;;5031617;28;19913;-77
2023/01/25 16:13:58;;;;;;;;;;;;;;;;;;5031308;28;20439;-77
2023/01/25 16:16:25;;;;;;;;;;;;;;;;;;5032683;28;19921;-76
2023/01/25 16:18:51;;;;;;;;;;;;;;;;;;5032623;28;19935;-75
2023/01/25 16:21:17;;;;;;;;;;;;;;;;;;5031613;28;19913;-76
2023/01/25 16:23:43;;;;;;;;;;;;;;;;;;5032447;28;19925;-75
2023/01/25 16:26:08;;;;;;;;;;;;;;;;;;5032961;28;19909;-76
2023/01/25 16:28:34;;;;;;;;;;;;;;;;;;5032751;28;20281;-76
2023/01/25 16:31:00;;;;;;;;;;;;;;;;;;5032541;28;19914;-76
2023/01/25 16:33:26;;;;;;;;;;;;;;;;;;5042956;28;19909;-77
2023/01/25 16:35:52;;;;;;;;;;;;;;;;;;5052686;28;19916;-76
2023/01/25 16:38:18;;;;;;;;;;;;;;;;;;5055628;28;19909;-76
2023/01/25 16:40:44;;;;;;;;;;;;;;;;;;5056313;28;19913;-77